Time;durP1;ratioP1;P1;durP2;ratioP2;P2;SDS_P1;SDS_P2;PMS_P1;PMS_P2;Temp;Humidity;BMP_temperature;BMP_pressure;BME280_temperature;BME280_humidity;BME280_pressure;Samples;Min_cycle;Max_cycle;Signal;HPM_P1;HPM_P2
2023/04/18 00:02:09;;;;;;;32.60;30.25;;;;;;;5.37;78.29;98856.72;5043759;28;20029;-76
2023/04/18 00:04:34;;;;;;;30.13;27.92;;;;;;;5.27;78.19;98848.22;5039125;28;20119;-76
2023/04/18 00:07:00;;;;;;;30.77;28.38;;;;;;;5.31;78.72;98852.16;5042409;28;20032;-75
2023/04/18 00:09:25;;;;;;;30.80;28.50;;;;;;;5.27;78.50;98856.25;5015635;28;20044;-74
2023/04/18 00:11:51;;;;;;;31.88;29.48;;;;;;;5.23;78.82;98860.31;5043569;28;20044;-75
2023/04/18 00:14:18;;;;;;;32.67;30.35;;;;;;;5.20;78.98;98860.72;5039204;28;20040;-77
2023/04/18 00:16:45;;;;;;;31.30;29.10;;;;;;;5.23;79.20;98860.31;5025328;28;20471;-78
2023/04/18 00:19:11;;;;;;;32.03;29.73;;;;;;;5.34;78.50;98854.44;5029756;28;20041;-77
2023/04/18 00:21:36;;;;;;;32.70;30.10;;;;;;;5.29;78.54;98848.84;5044652;28;20021;-77
2023/04/18 00:24:02;;;;;;;31.52;29.13;;;;;;;5.20;78.74;98855.38;5023179;28;20041;-74
2023/04/18 00:26:27;;;;;;;31.90;29.67;;;;;;;5.22;78.73;98852.50;5040933;28;20048;-75
2023/04/18 00:28:53;;;;;;;33.53;31.13;;;;;;;5.27;78.24;98845.56;5031239;28;20106;-75
2023/04/18 00:31:18;;;;;;;30.83;28.58;;;;;;;5.29;78.54;98858.72;5043632;28;20026;-76
2023/04/18 00:33:43;;;;;;;34.28;31.90;;;;;;;5.20;79.25;98860.72;4999255;28;20128;-75
2023/04/18 00:36:09;;;;;;;36.20;33.80;;;;;;;5.18;79.79;98844.03;5051501;28;20054;-75
2023/04/18 00:38:34;;;;;;;32.80;30.52;;;;;;;5.30;78.09;98844.31;5034895;28;20146;-75
2023/04/18 00:41:00;;;;;;;29.90;27.80;;;;;;;5.31;78.09;98841.47;5010266;28;20021;-75
2023/04/18 00:43:25;;;;;;;28.90;26.70;;;;;;;5.29;79.13;98846.19;5005780;28;20041;-76
2023/04/18 00:45:51;;;;;;;26.35;24.45;;;;;;;5.45;77.43;98837.88;5021722;28;20052;-76
2023/04/18 00:48:17;;;;;;;27.40;25.40;;;;;;;5.46;77.81;98839.50;5036620;28;20115;-76
2023/04/18 00:50:42;;;;;;;27.50;25.50;;;;;;;5.49;77.84;98838.28;5041033;28;20031;-76
2023/04/18 00:53:09;;;;;;;29.85;27.80;;;;;;;5.29;77.97;98838.19;5031689;28;20088;-76
2023/04/18 00:55:34;;;;;;;31.85;29.58;;;;;;;5.36;78.86;98844.41;5026550;28;20021;-75
2023/04/18 00:58:01;;;;;;;30.77;28.52;;;;;;;5.43;78.36;98839.91;5022099;28;20029;-75
2023/04/18 01:00:27;;;;;;;32.45;30.25;;;;;;;5.34;78.75;98833.09;5004288;28;20053;-76
2023/04/18 01:02:54;;;;;;;31.50;29.35;;;;;;;5.48;78.51;98832.13;5046016;28;20132;-75
2023/04/18 01:05:22;;;;;;;30.70;28.52;;;;;;;5.47;78.27;98830.47;5015352;28;20017;-75
2023/04/18 01:07:48;;;;;;;30.08;27.88;;;;;;;5.50;77.57;98839.97;5030027;28;20060;-75
2023/04/18 01:10:13;;;;;;;31.05;28.95;;;;;;;5.35;78.47;98832.03;5026446;28;20029;-75
2023/04/18 01:12:40;;;;;;;31.67;29.27;;;;;;;5.54;78.50;98828.69;5037993;28;20033;-74
2023/04/18 01:15:06;;;;;;;27.27;25.17;;;;;;;5.31;79.02;98836.13;5041068;28;20028;-75
2023/04/18 01:17:34;;;;;;;29.73;27.77;;;;;;;5.40;78.44;98824.28;5016654;28;20116;-75
2023/04/18 01:20:09;;;;;;;30.75;28.48;;;;;;;5.30;79.14;98822.97;5034838;28;20036;-75
2023/04/18 01:22:34;;;;;;;32.20;29.90;;;;;;;5.28;78.74;98825.84;5051104;28;20040;-75
2023/04/18 01:25:05;;;;;;;32.65;30.13;;;;;;;5.38;78.39;98834.34;5021193;28;20033;-76
2023/04/18 01:27:31;;;;;;;32.38;30.08;;;;;;;5.13;79.31;98821.63;5026556;28;20076;-75
2023/04/18 01:29:58;;;;;;;34.65;32.35;;;;;;;5.03;80.22;98826.47;5050601;28;20025;-75
2023/04/18 01:32:28;;;;;;;37.13;34.78;;;;;;;4.97;80.39;98828.06;5042869;28;20030;-75
2023/04/18 01:34:53;;;;;;;36.90;34.42;;;;;;;4.98;80.11;98828.88;5027211;28;20078;-76
2023/04/18 01:37:19;;;;;;;39.17;36.63;;;;;;;4.89;79.97;98825.53;5034185;28;20254;-77
2023/04/18 01:39:44;;;;;;;41.70;38.90;;;;;;;5.08;79.85;98816.88;5037134;28;20034;-77
2023/04/18 01:42:10;;;;;;;40.42;37.83;;;;;;;5.04;80.41;98818.25;5018649;28;20021;-77
2023/04/18 01:44:36;;;;;;;39.97;37.22;;;;;;;5.05;80.57;98825.25;5005508;28;20056;-77
2023/04/18 01:47:01;;;;;;;40.63;37.97;;;;;;;5.14;80.24;98817.91;5034795;28;20029;-77
2023/04/18 01:49:26;;;;;;;39.05;36.55;;;;;;;5.12;79.69;98815.47;5002576;28;20044;-77
2023/04/18 01:51:52;;;;;;;41.65;38.85;;;;;;;5.06;81.04;98829.59;5027727;28;20064;-77
2023/04/18 01:54:20;;;;;;;41.15;38.25;;;;;;;4.98;80.98;98826.22;5044579;28;20040;-78
2023/04/18 01:56:45;;;;;;;42.13;39.45;;;;;;;4.95;81.53;98824.75;5022402;28;20021;-77
2023/04/18 01:59:10;;;;;;;46.20;43.28;;;;;;;4.78;81.78;98823.41;5001178;28;20120;-78
2023/04/18 02:01:37;;;;;;;44.78;41.78;;;;;;;4.97;81.51;98820.06;5006027;28;20156;-76
2023/04/18 02:04:02;;;;;;;47.03;44.03;;;;;;;4.95;81.20;98819.41;5020272;28;20041;-76
2023/04/18 02:06:27;;;;;;;48.17;45.08;;;;;;;4.96;81.55;98815.75;5031144;28;20028;-76
2023/04/18 02:08:53;;;;;;;47.05;43.88;;;;;;;4.92;81.55;98806.50;5017842;28;20036;-76
2023/04/18 02:11:18;;;;;;;47.10;44.08;;;;;;;4.93;81.64;98815.28;5007820;28;20464;-75
2023/04/18 02:13:43;;;;;;;50.25;47.13;;;;;;;4.79;82.04;98807.19;5027740;28;20044;-75
2023/04/18 02:16:11;;;;;;;51.72;48.47;;;;;;;4.85;82.03;98814.41;5007937;28;20538;-76
2023/04/18 02:18:38;;;;;;;51.50;48.08;;;;;;;4.74;83.05;98812.28;5021820;28;20093;-76
2023/04/18 02:21:05;;;;;;;49.15;46.05;;;;;;;4.83;81.58;98821.00;5027336;28;20029;-76
2023/04/18 02:23:30;;;;;;;49.20;46.00;;;;;;;4.97;81.77;98813.91;5049933;28;20139;-75
2023/04/18 02:25:55;;;;;;;50.53;47.25;;;;;;;4.65;82.33;98804.59;5021317;28;20738;-75
2023/04/18 02:28:21;;;;;;;50.97;47.58;;;;;;;4.77;83.02;98808.41;5001549;28;20056;-75
2023/04/18 02:30:46;;;;;;;52.40;49.17;;;;;;;4.91;82.48;98812.84;5045050;28;20056;-76
2023/04/18 02:33:12;;;;;;;51.72;48.40;;;;;;;4.76;82.07;98804.09;5043960;28;20083;-76
2023/04/18 02:35:37;;;;;;;54.35;50.95;;;;;;;4.70;83.45;98815.53;5037173;28;20394;-76
2023/04/18 02:38:02;;;;;;;53.92;50.55;;;;;;;4.77;82.96;98811.06;5042481;28;20029;-76
2023/04/18 02:40:28;;;;;;;54.38;50.90;;;;;;;4.94;82.50;98807.13;5047942;28;20029;-76
2023/04/18 02:42:53;;;;;;;52.67;49.30;;;;;;;4.85;83.00;98808.28;5021475;28;20120;-77
2023/04/18 02:45:19;;;;;;;53.05;49.85;;;;;;;4.87;82.98;98806.25;5018884;28;20091;-77
2023/04/18 02:47:44;;;;;;;56.00;52.53;;;;;;;5.00;82.99;98822.34;5031007;28;20051;-77
2023/04/18 02:50:10;;;;;;;54.53;51.22;;;;;;;5.02;83.07;98814.97;5007689;28;20025;-77
2023/04/18 02:52:36;;;;;;;52.28;48.78;;;;;;;4.97;83.09;98811.25;5023803;28;20449;-76
2023/04/18 02:55:01;;;;;;;51.45;48.28;;;;;;;4.89;83.16;98814.88;5010450;28;20124;-76
2023/04/18 02:57:32;;;;;;;52.90;49.63;;;;;;;5.04;83.33;98818.25;5025477;28;20098;-77
2023/04/18 02:59:58;;;;;;;49.95;46.85;;;;;;;5.03;83.33;98816.63;5030074;28;20407;-76
2023/04/18 03:03:01;;;;;;;50.83;47.72;;;;;;;5.06;83.53;98815.41;5000655;28;20040;-76
2023/04/18 03:05:38;;;;;;;53.83;50.53;;;;;;;5.20;82.65;98817.16;5024801;28;20132;-77
2023/04/18 03:08:04;;;;;;;51.60;48.28;;;;;;;5.20;83.51;98817.16;5029953;28;20402;-76
2023/04/18 03:10:30;;;;;;;50.78;47.67;;;;;;;5.33;83.13;98823.41;5036384;28;20135;-76
2023/04/18 03:12:56;;;;;;;51.55;48.38;;;;;;;5.37;83.26;98821.16;5023587;28;20072;-76
2023/04/18 03:15:21;;;;;;;51.00;47.70;;;;;;;5.32;83.29;98826.28;5039598;28;20107;-76
2023/04/18 03:17:49;;;;;;;51.97;48.67;;;;;;;5.49;82.18;98817.75;5009699;28;20042;-76
2023/04/18 03:20:15;;;;;;;47.47;44.58;;;;;;;5.59;82.50;98822.75;5030114;28;20016;-75
2023/04/18 03:22:40;;;;;;;49.03;46.03;;;;;;;5.51;82.50;98814.88;5036537;28;20111;-75
2023/04/18 03:25:06;;;;;;;48.88;45.78;;;;;;;5.60;82.82;98814.53;5038887;28;20025;-75
2023/04/18 03:27:42;;;;;;;49.60;46.47;;;;;;;5.62;82.53;98816.19;5011082;28;20162;-75
2023/04/18 03:30:09;;;;;;;46.53;43.53;;;;;;;5.73;82.29;98815.63;5037529;28;20033;-75
2023/04/18 03:32:35;;;;;;;50.17;46.97;;;;;;;5.79;82.28;98814.84;5025658;28;20391;-75
2023/04/18 03:35:01;;;;;;;47.13;44.08;;;;;;;5.83;81.84;98813.41;5020499;28;20047;-74
2023/04/18 03:37:27;;;;;;;48.75;45.47;;;;;;;5.79;82.56;98812.16;5053186;28;20025;-75
2023/04/18 03:39:54;;;;;;;51.60;48.28;;;;;;;5.83;82.83;98818.75;5037622;28;20037;-74
2023/04/18 03:42:20;;;;;;;50.92;47.47;;;;;;;5.90;83.29;98814.28;5026298;28;20028;-76
2023/04/18 03:44:47;;;;;;;52.28;48.88;;;;;;;5.82;83.35;98817.09;5038566;28;20121;-76
2023/04/18 03:47:16;;;;;;;52.88;49.30;;;;;;;5.83;83.53;98813.41;5025529;28;20100;-75
2023/04/18 03:49:44;;;;;;;53.08;49.38;;;;;;;5.76;83.18;98791.19;5040645;28;20040;-76
2023/04/18 03:52:10;;;;;;;52.85;49.42;;;;;;;5.86;83.23;98807.72;5008302;28;20399;-75
2023/04/18 03:54:35;;;;;;;54.22;50.63;;;;;;;5.88;83.60;98803.78;5003713;28;20037;-75
2023/04/18 03:57:02;;;;;;;54.03;50.60;;;;;;;5.92;83.47;98814.91;5027808;28;20464;-76
2023/04/18 03:59:28;;;;;;;53.22;49.60;;;;;;;6.04;83.61;98818.66;5017810;28;20064;-76
2023/04/18 04:01:54;;;;;;;54.28;50.58;;;;;;;5.87;84.42;98804.81;5035506;28;20025;-76
2023/04/18 04:04:20;;;;;;;55.35;51.50;;;;;;;6.02;83.92;98808.16;5020677;28;20033;-76
2023/04/18 04:06:46;;;;;;;51.42;47.97;;;;;;;6.10;83.61;98815.19;5007297;28;20126;-77
2023/04/18 04:09:12;;;;;;;53.83;50.13;;;;;;;6.05;83.83;98820.31;5013555;28;20037;-77
2023/04/18 04:11:38;;;;;;;53.92;50.13;;;;;;;6.01;83.87;98813.72;5026823;28;20464;-76
2023/04/18 04:14:06;;;;;;;53.05;49.47;;;;;;;6.11;84.38;98824.88;5007821;28;20040;-76
2023/04/18 04:16:37;;;;;;;55.17;51.38;;;;;;;6.05;83.93;98822.97;5005940;28;20030;-77
2023/04/18 04:19:03;;;;;;;55.05;51.25;;;;;;;6.08;83.85;98822.59;5043926;28;20033;-75
2023/04/18 04:21:36;;;;;;;53.78;50.03;;;;;;;6.06;84.48;98824.63;5029193;28;20055;-76
2023/04/18 04:24:02;;;;;;;53.53;49.67;;;;;;;6.11;84.28;98833.69;5005546;28;20033;-76
2023/04/18 04:26:34;;;;;;;52.97;49.47;;;;;;;6.15;83.73;98823.44;5023170;28;20028;-76
2023/04/18 04:29:05;;;;;;;54.60;50.72;;;;;;;6.23;83.04;98828.63;5007697;28;20044;-75
2023/04/18 04:31:32;;;;;;;51.83;48.35;;;;;;;6.28;83.52;98833.34;5034812;28;20040;-76
2023/04/18 04:33:57;;;;;;;53.33;49.72;;;;;;;6.21;84.13;98838.66;5022618;28;20021;-76
2023/04/18 04:36:26;;;;;;;55.58;51.60;;;;;;;6.18;83.33;98833.75;5021874;28;20026;-76
2023/04/18 04:38:51;;;;;;;55.22;51.42;;;;;;;6.20;83.50;98843.22;5008683;28;20026;-76
2023/04/18 04:41:21;;;;;;;55.92;52.17;;;;;;;6.26;83.16;98836.22;5039126;28;20025;-76
2023/04/18 04:43:47;;;;;;;53.30;49.85;;;;;;;6.32;83.99;98838.09;5039035;28;20128;-76
2023/04/18 04:46:18;;;;;;;53.13;49.53;;;;;;;6.30;82.84;98837.47;5031410;28;20052;-77
2023/04/18 04:48:45;;;;;;;51.75;48.28;;;;;;;6.36;83.35;98842.00;5023325;28;20127;-76
2023/04/18 04:51:10;;;;;;;52.20;48.78;;;;;;;6.48;83.16;98837.72;5003294;28;20105;-77
2023/04/18 04:53:36;;;;;;;51.47;48.00;;;;;;;6.47;83.25;98843.25;5026706;28;20059;-76
2023/04/18 04:56:03;;;;;;;51.42;48.03;;;;;;;6.42;82.43;98841.19;5031206;28;20033;-76
2023/04/18 04:58:29;;;;;;;53.55;49.83;;;;;;;6.50;82.21;98830.31;5030728;28;20499;-75
2023/04/18 05:01:11;;;;;;;51.50;47.97;;;;;;;6.53;82.80;98837.94;5020974;28;20070;-75
2023/04/18 05:03:38;;;;;;;51.65;48.25;;;;;;;6.60;82.47;98830.75;5024001;28;20039;-75
2023/04/18 05:06:04;;;;;;;49.38;46.17;;;;;;;6.67;82.43;98849.50;5031136;28;20104;-76
2023/04/18 05:08:29;;;;;;;49.28;46.08;;;;;;;6.81;82.23;98846.59;5051075;28;20037;-76
2023/04/18 05:10:55;;;;;;;48.97;45.67;;;;;;;6.66;82.42;98832.59;5021261;28;20080;-76
2023/04/18 05:13:20;;;;;;;49.63;46.42;;;;;;;6.83;81.62;98839.22;5004595;28;20038;-76
2023/04/18 05:15:45;;;;;;;50.45;47.13;;;;;;;6.83;81.17;98847.25;5044396;28;20132;-76
2023/04/18 05:18:13;;;;;;;47.95;44.85;;;;;;;6.89;81.75;98840.25;5039885;28;20033;-76
2023/04/18 05:20:38;;;;;;;45.00;41.92;;;;;;;7.18;80.63;98844.38;5003387;23;20041;-72
2023/04/18 05:23:03;;;;;;;44.33;41.53;;;;;;;7.08;82.39;98846.63;4988789;28;20404;-73
2023/04/18 05:25:30;;;;;;;44.42;41.40;;;;;;;7.10;81.22;98849.94;4966345;28;20060;-75
2023/04/18 05:27:55;;;;;;;44.25;41.25;;;;;;;7.10;81.24;98855.28;4958813;28;20103;-75
2023/04/18 05:30:21;;;;;;;41.60;38.90;;;;;;;7.29;80.68;98860.66;4964012;28;20630;-75
2023/04/18 05:32:46;;;;;;;40.65;38.05;;;;;;;7.32;80.72;98848.69;4991421;28;20060;-75
2023/04/18 05:35:11;;;;;;;39.55;37.15;;;;;;;7.38;80.28;98850.53;4991578;28;20033;-76
2023/04/18 05:37:37;;;;;;;39.35;36.75;;;;;;;7.66;80.43;98859.97;4991268;28;20051;-75
2023/04/18 05:40:04;;;;;;;37.75;35.30;;;;;;;7.47;79.89;98868.03;4975049;28;20034;-75
2023/04/18 05:42:29;;;;;;;36.38;33.97;;;;;;;7.52;78.74;98857.53;4990210;28;20412;-75
2023/04/18 05:44:54;;;;;;;34.83;32.63;;;;;;;7.37;79.62;98862.28;4970697;28;20027;-75
2023/04/18 05:47:20;;;;;;;34.00;31.85;;;;;;;7.70;78.87;98868.44;4976656;28;20031;-74
2023/04/18 05:49:45;;;;;;;32.85;30.75;;;;;;;7.74;78.17;98858.94;4972502;28;20131;-75
2023/04/18 05:52:11;;;;;;;29.85;27.95;;;;;;;8.02;78.31;98862.16;4980731;28;20881;-75
2023/04/18 05:54:36;;;;;;;29.08;27.25;;;;;;;7.84;78.32;98856.63;4990792;28;20026;-73
2023/04/18 05:57:01;;;;;;;25.98;24.27;;;;;;;8.02;77.19;98862.16;4991037;28;20042;-75
2023/04/18 05:59:27;;;;;;;25.67;23.98;;;;;;;8.15;76.56;98864.78;4990888;28;20022;-75
2023/04/18 06:01:52;;;;;;;25.67;24.13;;;;;;;8.14;77.18;98862.31;4990911;28;20042;-76
2023/04/18 06:04:18;;;;;;;22.77;21.27;;;;;;;8.23;76.83;98861.88;4990788;28;20026;-75
2023/04/18 06:06:44;;;;;;;21.60;20.10;;;;;;;8.28;76.41;98862.06;4990926;28;20034;-75
2023/04/18 06:09:09;;;;;;;19.20;17.70;;;;;;;8.53;75.90;98869.38;4991741;28;20054;-75
2023/04/18 06:11:35;;;;;;;18.38;16.98;;;;;;;8.42;76.65;98862.03;4996373;28;20053;-75
2023/04/18 06:14:01;;;;;;;19.08;17.67;;;;;;;8.69;75.03;98868.88;4994821;28;20034;-76
2023/04/18 06:16:26;;;;;;;18.80;17.30;;;;;;;8.54;75.62;98865.69;4995135;28;20042;-75
2023/04/18 06:18:51;;;;;;;16.52;15.23;;;;;;;8.52;74.95;98862.38;4995779;28;20536;-74
2023/04/18 06:21:17;;;;;;;18.45;17.15;;;;;;;8.65;76.05;98871.19;4978743;28;20052;-75
2023/04/18 06:23:42;;;;;;;19.23;17.92;;;;;;;8.86;74.91;98862.78;4994597;28;20022;-76
2023/04/18 06:26:08;;;;;;;20.70;19.23;;;;;;;8.95;75.46;98860.66;4994778;28;20492;-75
2023/04/18 06:28:34;;;;;;;17.88;16.48;;;;;;;9.01;74.58;98857.09;4992023;28;20079;-75
2023/04/18 06:30:59;;;;;;;17.38;16.13;;;;;;;8.88;75.33;98857.19;4984392;28;20407;-74
2023/04/18 06:33:24;;;;;;;16.17;14.85;;;;;;;9.03;74.48;98860.41;4994416;28;20050;-76
2023/04/18 06:35:50;;;;;;;17.42;16.13;;;;;;;9.04;74.27;98859.34;4982328;28;20488;-75
2023/04/18 06:38:15;;;;;;;17.70;16.23;;;;;;;9.32;73.79;98870.50;4963015;28;20027;-75
2023/04/18 06:40:41;;;;;;;17.70;16.40;;;;;;;9.11;75.19;98872.72;4978477;28;20476;-76
2023/04/18 06:43:06;;;;;;;16.30;15.10;;;;;;;9.33;74.76;98882.06;4978258;28;20035;-75
2023/04/18 06:45:32;;;;;;;13.88;12.77;;;;;;;9.56;72.32;98875.03;4980396;28;20138;-75
2023/04/18 06:47:58;;;;;;;17.00;15.73;;;;;;;9.71;74.65;98874.66;4973401;28;20026;-75
2023/04/18 06:50:25;;;;;;;14.95;13.65;;;;;;;9.82;73.49;98884.72;4971218;28;20042;-74
2023/04/18 06:52:50;;;;;;;14.55;13.32;;;;;;;9.97;72.76;98887.03;4988105;28;20403;-75
2023/04/18 06:55:15;;;;;;;15.68;14.38;;;;;;;9.63;73.33;98889.25;4961682;28;20035;-76
2023/04/18 06:57:42;;;;;;;15.43;14.13;;;;;;;9.82;72.70;98898.16;4992420;28;20026;-75
2023/04/18 07:00:08;;;;;;;14.68;13.40;;;;;;;9.87;72.94;98886.75;4983003;28;20054;-73
2023/04/18 07:02:35;;;;;;;12.85;11.65;;;;;;;10.05;71.27;98903.72;4985483;28;20374;-75
2023/04/18 07:05:01;;;;;;;13.57;12.32;;;;;;;9.91;71.40;98901.38;4983161;28;20125;-75
2023/04/18 07:07:26;;;;;;;13.20;12.00;;;;;;;10.14;71.79;98896.19;4979739;28;20499;-75
2023/04/18 07:09:52;;;;;;;13.10;11.82;;;;;;;9.57;72.01;98898.19;4965337;28;20045;-75
2023/04/18 07:12:18;;;;;;;11.82;10.55;;;;;;;9.92;70.48;98892.28;4976965;28;20022;-75
2023/04/18 07:14:43;;;;;;;11.80;10.70;;;;;;;9.85;70.85;98902.28;4957069;28;20062;-75
2023/04/18 07:17:08;;;;;;;12.40;11.20;;;;;;;10.07;70.80;98906.19;4975386;28;20037;-75
2023/04/18 07:19:34;;;;;;;11.90;10.73;;;;;;;10.06;70.57;98901.84;4975813;28;20463;-75
2023/04/18 07:22:00;;;;;;;12.50;11.27;;;;;;;10.05;71.33;98905.59;4977255;28;20023;-75
2023/04/18 07:24:25;;;;;;;11.90;10.80;;;;;;;10.68;69.90;98909.63;4973852;28;20439;-75
2023/04/18 07:26:50;;;;;;;11.98;10.75;;;;;;;10.60;70.00;98912.59;4987098;28;20610;-75
2023/04/18 07:29:18;;;;;;;10.98;9.88;;;;;;;10.56;70.09;98910.59;4966548;28;20121;-75
2023/04/18 07:31:44;;;;;;;12.65;11.35;;;;;;;10.73;70.03;98920.53;4993600;28;20053;-75
2023/04/18 07:34:10;;;;;;;10.88;9.70;;;;;;;10.89;69.26;98909.13;4985667;28;20551;-75
2023/04/18 07:36:35;;;;;;;9.75;8.85;;;;;;;10.57;68.68;98906.88;4990720;28;20029;-75
2023/04/18 07:39:01;;;;;;;11.90;9.82;;;;;;;10.66;69.54;98911.72;4985794;28;20069;-75
2023/04/18 07:41:26;;;;;;;10.63;9.52;;;;;;;10.69;69.13;98916.63;4977633;28;20058;-75
2023/04/18 07:43:51;;;;;;;10.60;9.50;;;;;;;10.44;69.65;98918.63;4968448;28;20076;-75
2023/04/18 07:46:17;;;;;;;13.05;9.65;;;;;;;10.75;69.55;98915.75;4975197;28;20034;-74
2023/04/18 07:48:42;;;;;;;10.88;9.73;;;;;;;10.63;69.23;98920.25;4990711;28;20044;-75
2023/04/18 07:51:08;;;;;;;11.65;10.32;;;;;;;10.11;69.79;98918.13;4974954;28;20027;-75
2023/04/18 07:53:33;;;;;;;10.60;9.60;;;;;;;10.12;69.60;98914.44;4956302;28;20038;-75
2023/04/18 07:55:58;;;;;;;11.65;10.45;;;;;;;10.44;68.83;98913.22;4955939;28;20649;-76
2023/04/18 07:58:24;;;;;;;11.95;10.75;;;;;;;10.36;70.92;98927.00;4969563;28;20046;-76
2023/04/18 08:00:49;;;;;;;11.77;10.65;;;;;;;10.57;70.49;98928.41;4978906;28;20023;-75
2023/04/18 08:03:14;;;;;;;11.40;9.45;;;;;;;10.53;69.09;98917.25;4980440;28;20042;-75
2023/04/18 08:05:41;;;;;;;11.45;10.32;;;;;;;10.29;69.69;98920.88;4986597;28;20025;-75
2023/04/18 08:08:08;;;;;;;11.85;10.65;;;;;;;10.15;71.11;98927.47;4993030;28;20081;-75
2023/04/18 08:10:34;;;;;;;11.63;10.50;;;;;;;10.11;70.83;98934.28;4980197;28;20049;-75
2023/04/18 08:12:59;;;;;;;11.80;10.57;;;;;;;10.16;70.70;98931.78;4980651;28;20481;-75
2023/04/18 08:15:26;;;;;;;12.48;11.27;;;;;;;9.98;72.10;98931.72;4979668;28;20030;-76
2023/04/18 08:17:52;;;;;;;13.93;11.45;;;;;;;10.15;70.42;98930.16;4992706;28;20484;-76
2023/04/18 08:20:18;;;;;;;11.75;10.60;;;;;;;10.02;70.00;98930.22;4991706;28;20073;-77
2023/04/18 08:22:43;;;;;;;11.65;10.55;;;;;;;11.11;68.93;98914.78;4972870;28;20034;-77
2023/04/18 08:25:08;;;;;;;11.82;10.73;;;;;;;11.33;69.14;98913.22;4966188;28;20037;-76
2023/04/18 08:27:34;;;;;;;11.35;10.20;;;;;;;11.37;69.01;98918.97;4973144;28;20030;-76
2023/04/18 08:30:00;;;;;;;10.77;9.68;;;;;;;11.22;67.14;98922.13;4971349;28;20101;-73
2023/04/18 08:32:26;;;;;;;10.35;9.32;;;;;;;11.83;67.48;98929.03;4979699;28;20038;-76
2023/04/18 08:34:51;;;;;;;11.60;9.90;;;;;;;11.07;68.82;98927.94;4979561;28;20046;-76
2023/04/18 08:37:16;;;;;;;11.70;10.50;;;;;;;11.29;69.35;98913.91;4972340;28;20074;-75
2023/04/18 08:39:42;;;;;;;12.80;10.95;;;;;;;10.80;69.14;98933.91;4956359;28;20051;-77
2023/04/18 08:42:09;;;;;;;11.02;9.85;;;;;;;10.69;69.02;98938.19;4935180;29;20081;-76
2023/04/18 08:44:34;;;;;;;14.40;10.60;;;;;;;10.67;69.44;98928.69;4973062;28;20026;-77
2023/04/18 08:47:00;;;;;;;13.15;11.75;;;;;;;10.57;69.25;98923.81;4960842;28;20038;-77
2023/04/18 08:49:25;;;;;;;12.85;11.50;;;;;;;10.70;69.52;98934.44;4979576;28;20034;-76
2023/04/18 08:51:51;;;;;;;13.23;11.70;;;;;;;11.01;68.38;98926.16;4973136;28;20043;-76
2023/04/18 08:54:18;;;;;;;12.57;11.27;;;;;;;10.64;69.76;98929.94;4986114;28;20073;-76
2023/04/18 08:56:44;;;;;;;13.40;11.98;;;;;;;11.01;69.28;98919.94;4969562;28;20038;-77
2023/04/18 08:59:10;;;;;;;13.95;12.07;;;;;;;11.09;68.72;98931.22;4948580;28;20126;-76
2023/04/18 09:01:55;;;;;;;13.05;11.63;;;;;;;10.79;69.49;98933.09;4979556;28;20188;-77
2023/04/18 09:04:52;;;;;;;13.13;11.40;;;;;;;10.81;69.45;98951.72;4992552;28;20042;-76
2023/04/18 09:07:20;;;;;;;14.60;11.73;;;;;;;10.77;69.78;98932.50;4993422;28;20061;-76
2023/04/18 09:09:46;;;;;;;12.77;10.95;;;;;;;10.64;69.47;98939.94;4992115;28;20088;-77
2023/04/18 09:12:14;;;;;;;14.18;11.88;;;;;;;10.85;69.73;98944.84;4991992;28;20042;-77
2023/04/18 09:14:49;;;;;;;13.15;11.70;;;;;;;11.03;68.48;98945.63;4992039;28;20110;-76
2023/04/18 09:17:30;;;;;;;13.35;11.95;;;;;;;10.97;69.82;98935.72;4991296;28;20042;-76
2023/04/18 09:19:56;;;;;;;13.43;12.02;;;;;;;10.91;69.60;98930.44;4963911;28;20034;-76
2023/04/18 09:22:22;;;;;;;15.05;11.68;;;;;;;11.16;68.30;98933.78;4975167;28;20428;-76
2023/04/18 09:24:51;;;;;;;12.90;11.45;;;;;;;11.08;68.80;98934.16;4982675;28;20045;-76
2023/04/18 09:27:17;;;;;;;14.00;12.60;;;;;;;11.43;68.85;98926.97;4958218;28;20027;-76
2023/04/18 09:29:45;;;;;;;13.57;12.18;;;;;;;11.22;69.47;98937.47;4983148;28;20042;-76
2023/04/18 09:32:23;;;;;;;13.68;12.27;;;;;;;11.11;69.59;98936.34;4986728;28;20480;-76
2023/04/18 09:34:53;;;;;;;14.45;12.93;;;;;;;11.20;69.73;98939.56;4984636;28;20134;-76
2023/04/18 09:37:19;;;;;;;15.20;13.20;;;;;;;11.19;69.44;98935.22;4972535;28;20031;-76
2023/04/18 09:39:44;;;;;;;15.45;13.80;;;;;;;11.10;70.11;98935.56;4968703;28;20030;-76
2023/04/18 09:42:10;;;;;;;15.05;13.52;;;;;;;11.13;69.97;98941.53;4962429;28;20112;-76
2023/04/18 09:44:37;;;;;;;14.43;12.93;;;;;;;11.57;68.86;98935.66;4961891;28;20084;-76
2023/04/18 09:47:02;;;;;;;14.75;13.25;;;;;;;11.44;69.97;98938.56;4979310;28;20033;-76
2023/04/18 09:49:27;;;;;;;14.43;12.20;;;;;;;11.46;68.35;98933.78;4987849;28;20034;-76
2023/04/18 09:51:54;;;;;;;14.50;12.98;;;;;;;11.38;68.73;98937.63;4983914;28;20038;-75
2023/04/18 09:54:24;;;;;;;14.75;12.70;;;;;;;11.25;68.65;98937.00;4980512;28;20043;-75
2023/04/18 09:56:52;;;;;;;15.02;12.55;;;;;;;11.23;68.98;98928.31;4988202;28;20039;-76
2023/04/18 09:59:35;;;;;;;15.45;13.93;;;;;;;11.14;68.71;98935.91;4961925;28;20031;-76
2023/04/18 10:02:02;;;;;;;15.45;12.95;;;;;;;11.28;68.35;98923.03;4980697;28;20704;-76
2023/04/18 10:04:29;;;;;;;15.32;13.73;;;;;;;11.37;68.12;98917.09;4968599;28;20019;-76
2023/04/18 10:06:55;;;;;;;14.93;13.23;;;;;;;11.42;67.95;98927.19;4966328;28;20118;-76
2023/04/18 10:09:21;;;;;;;15.48;13.52;;;;;;;11.38;68.38;98929.53;4974887;28;20031;-76
2023/04/18 10:11:46;;;;;;;14.95;13.25;;;;;;;11.38;68.06;98928.72;4955585;28;20031;-76
2023/04/18 10:14:13;;;;;;;14.13;12.63;;;;;;;11.66;68.23;98927.00;4984320;28;20053;-76
2023/04/18 10:16:38;;;;;;;14.27;12.73;;;;;;;11.45;68.49;98934.81;4966167;28;20089;-76
2023/04/18 10:19:24;;;;;;;15.50;13.85;;;;;;;11.48;69.41;98934.38;4973649;28;20026;-76
2023/04/18 10:21:54;;;;;;;16.65;14.95;;;;;;;11.28;69.18;98933.84;4968523;28;20547;-76
2023/04/18 10:24:52;;;;;;;15.60;14.00;;;;;;;11.45;68.80;98934.81;4963782;28;20516;-75
2023/04/18 10:27:36;;;;;;;15.07;13.43;;;;;;;11.29;68.56;98941.72;4934717;28;20059;-75
2023/04/18 10:30:02;;;;;;;15.57;13.68;;;;;;;11.50;67.83;98935.78;4984438;28;20038;-75
2023/04/18 10:32:27;;;;;;;15.27;13.48;;;;;;;11.92;67.95;98933.03;4978510;28;20081;-75
2023/04/18 10:34:53;;;;;;;16.08;14.20;;;;;;;12.30;66.25;98946.81;4961295;28;20129;-76
2023/04/18 10:37:18;;;;;;;14.65;13.05;;;;;;;12.15;65.29;98933.84;4985091;28;20092;-76
2023/04/18 10:39:52;;;;;;;14.88;12.35;;;;;;;12.13;64.42;98935.97;4968023;28;20121;-75
2023/04/18 10:42:18;;;;;;;14.50;12.35;;;;;;;12.42;66.18;98924.16;4980677;28;20045;-76
2023/04/18 10:45:16;;;;;;;15.20;12.65;;;;;;;12.71;65.25;98935.00;4959902;28;20031;-76
2023/04/18 10:47:41;;;;;;;12.95;11.40;;;;;;;11.90;66.03;98922.47;4983994;28;20037;-75
2023/04/18 10:50:07;;;;;;;13.38;11.88;;;;;;;12.25;67.09;98928.63;4961463;28;20034;-75
2023/04/18 10:52:32;;;;;;;14.13;11.10;;;;;;;11.55;66.93;98921.59;4962079;28;20481;-76
2023/04/18 10:55:08;;;;;;;13.13;10.80;;;;;;;11.97;64.36;98931.25;4968291;28;20030;-75
2023/04/18 10:57:44;;;;;;;11.85;10.65;;;;;;;12.49;63.33;98919.44;4988252;28;20464;-76
2023/04/18 11:00:11;;;;;;;11.23;10.07;;;;;;;12.72;61.90;98923.16;4983833;28;20492;-76
2023/04/18 11:02:37;;;;;;;13.35;10.43;;;;;;;13.20;61.51;98914.63;4981272;28;20045;-75
2023/04/18 11:05:05;;;;;;;11.50;9.52;;;;;;;13.38;60.98;98901.69;4984826;28;20480;-76
2023/04/18 11:07:40;;;;;;;12.60;10.95;;;;;;;13.06;61.80;98908.69;4971533;28;20023;-75
2023/04/18 11:10:08;;;;;;;11.90;10.65;;;;;;;12.70;63.52;98919.84;4985333;28;20130;-75
2023/04/18 11:12:35;;;;;;;12.93;11.02;;;;;;;12.23;64.32;98925.34;4977008;28;20031;-75
2023/04/18 11:15:02;;;;;;;12.10;10.80;;;;;;;12.09;64.87;98929.38;4969091;28;20046;-76
2023/04/18 11:17:34;;;;;;;14.10;11.43;;;;;;;12.77;62.96;98915.13;4982184;28;20026;-76
2023/04/18 11:20:07;;;;;;;13.63;12.07;;;;;;;12.66;63.31;98897.91;5023004;23;20065;-75
2023/04/18 11:23:20;;;;;;;13.55;11.30;;;;;;;12.32;63.38;98909.63;5026597;28;20081;-75